sensor_id;sensor_type;location;lat;lon;timestamp;P1;durP1;ratioP1;P2;durP2;ratioP2
76733;SDS011;65660;53.288;14.666;2024-03-08T00:00:07;24.13;;;14.10;;
76733;SDS011;65660;53.288;14.666;2024-03-08T00:05:09;26.40;;;14.67;;
76733;SDS011;65660;53.288;14.666;2024-03-08T00:10:10;25.70;;;14.63;;
76733;SDS011;65660;53.288;14.666;2024-03-08T00:15:15;24.60;;;14.27;;
76733;SDS011;65660;53.288;14.666;2024-03-08T00:20:16;24.97;;;16.57;;
76733;SDS011;65660;53.288;14.666;2024-03-08T00:25:17;25.70;;;17.50;;
76733;SDS011;65660;53.288;14.666;2024-03-08T00:30:18;26.90;;;14.97;;
76733;SDS011;65660;53.288;14.666;2024-03-08T00:35:18;27.80;;;14.13;;
76733;SDS011;65660;53.288;14.666;2024-03-08T00:40:19;26.57;;;16.20;;
76733;SDS011;65660;53.288;14.666;2024-03-08T00:45:19;22.17;;;14.83;;
76733;SDS011;65660;53.288;14.666;2024-03-08T00:50:20;25.90;;;14.20;;
76733;SDS011;65660;53.288;14.666;2024-03-08T00:55:20;23.47;;;14.87;;
76733;SDS011;65660;53.288;14.666;2024-03-08T01:00:21;25.67;;;14.20;;
76733;SDS011;65660;53.288;14.666;2024-03-08T01:05:22;23.77;;;13.87;;
76733;SDS011;65660;53.288;14.666;2024-03-08T01:10:24;25.63;;;14.03;;
76733;SDS011;65660;53.288;14.666;2024-03-08T01:15:24;25.63;;;14.47;;
76733;SDS011;65660;53.288;14.666;2024-03-08T01:20:25;23.40;;;14.37;;
76733;SDS011;65660;53.288;14.666;2024-03-08T01:25:25;23.80;;;14.83;;
76733;SDS011;65660;53.288;14.666;2024-03-08T01:30:26;23.40;;;14.33;;
76733;SDS011;65660;53.288;14.666;2024-03-08T01:35:27;31.43;;;16.60;;
76733;SDS011;65660;53.288;14.666;2024-03-08T01:40:27;28.87;;;15.77;;
76733;SDS011;65660;53.288;14.666;2024-03-08T01:45:28;27.33;;;14.47;;
76733;SDS011;65660;53.288;14.666;2024-03-08T01:50:28;30.90;;;16.10;;
76733;SDS011;65660;53.288;14.666;2024-03-08T01:55:29;24.17;;;14.87;;
76733;SDS011;65660;53.288;14.666;2024-03-08T02:00:29;36.47;;;17.93;;
76733;SDS011;65660;53.288;14.666;2024-03-08T02:05:30;30.00;;;14.90;;
76733;SDS011;65660;53.288;14.666;2024-03-08T02:10:31;26.73;;;14.83;;
76733;SDS011;65660;53.288;14.666;2024-03-08T02:15:52;33.97;;;16.43;;
76733;SDS011;65660;53.288;14.666;2024-03-08T02:20:59;27.07;;;15.53;;
76733;SDS011;65660;53.288;14.666;2024-03-08T02:25:59;30.07;;;15.13;;
76733;SDS011;65660;53.288;14.666;2024-03-08T02:31:00;28.70;;;14.77;;
76733;SDS011;65660;53.288;14.666;2024-03-08T02:36:01;26.87;;;15.10;;
76733;SDS011;65660;53.288;14.666;2024-03-08T02:41:01;26.37;;;15.13;;
76733;SDS011;65660;53.288;14.666;2024-03-08T02:46:02;26.03;;;15.07;;
76733;SDS011;65660;53.288;14.666;2024-03-08T02:51:03;25.90;;;14.73;;
76733;SDS011;65660;53.288;14.666;2024-03-08T02:56:04;25.33;;;14.13;;
76733;SDS011;65660;53.288;14.666;2024-03-08T03:01:04;27.13;;;14.87;;
76733;SDS011;65660;53.288;14.666;2024-03-08T03:06:05;24.40;;;13.73;;
76733;SDS011;65660;53.288;14.666;2024-03-08T03:11:05;23.60;;;13.77;;
76733;SDS011;65660;53.288;14.666;2024-03-08T03:16:06;26.57;;;14.13;;
76733;SDS011;65660;53.288;14.666;2024-03-08T03:21:07;25.33;;;14.53;;
76733;SDS011;65660;53.288;14.666;2024-03-08T03:26:10;26.83;;;14.77;;
76733;SDS011;65660;53.288;14.666;2024-03-08T03:31:11;25.23;;;14.70;;
76733;SDS011;65660;53.288;14.666;2024-03-08T03:36:12;25.20;;;13.97;;
76733;SDS011;65660;53.288;14.666;2024-03-08T03:41:12;23.40;;;14.17;;
76733;SDS011;65660;53.288;14.666;2024-03-08T03:46:13;23.30;;;13.63;;
76733;SDS011;65660;53.288;14.666;2024-03-08T03:51:13;25.90;;;15.33;;
76733;SDS011;65660;53.288;14.666;2024-03-08T03:56:14;23.33;;;15.00;;
76733;SDS011;65660;53.288;14.666;2024-03-08T04:01:15;24.40;;;14.07;;
76733;SDS011;65660;53.288;14.666;2024-03-08T04:06:15;25.07;;;14.67;;
76733;SDS011;65660;53.288;14.666;2024-03-08T04:11:16;26.27;;;14.33;;
76733;SDS011;65660;53.288;14.666;2024-03-08T04:16:17;31.93;;;16.17;;
76733;SDS011;65660;53.288;14.666;2024-03-08T04:21:17;30.70;;;15.87;;
76733;SDS011;65660;53.288;14.666;2024-03-08T04:26:18;29.03;;;15.57;;
76733;SDS011;65660;53.288;14.666;2024-03-08T04:31:19;32.23;;;17.43;;
76733;SDS011;65660;53.288;14.666;2024-03-08T04:36:20;34.77;;;17.50;;
76733;SDS011;65660;53.288;14.666;2024-03-08T04:41:21;28.40;;;16.27;;
76733;SDS011;65660;53.288;14.666;2024-03-08T04:46:21;32.53;;;17.40;;
76733;SDS011;65660;53.288;14.666;2024-03-08T04:51:22;30.90;;;16.00;;
76733;SDS011;65660;53.288;14.666;2024-03-08T04:56:23;30.27;;;17.27;;
76733;SDS011;65660;53.288;14.666;2024-03-08T05:01:23;26.93;;;14.87;;
76733;SDS011;65660;53.288;14.666;2024-03-08T05:06:24;28.53;;;16.27;;
76733;SDS011;65660;53.288;14.666;2024-03-08T05:11:25;27.77;;;16.47;;
76733;SDS011;65660;53.288;14.666;2024-03-08T05:16:25;28.47;;;17.27;;
76733;SDS011;65660;53.288;14.666;2024-03-08T05:21:26;29.33;;;16.30;;
76733;SDS011;65660;53.288;14.666;2024-03-08T05:26:26;32.17;;;17.13;;
76733;SDS011;65660;53.288;14.666;2024-03-08T05:31:27;30.87;;;16.53;;
76733;SDS011;65660;53.288;14.666;2024-03-08T05:36:27;32.10;;;17.67;;
76733;SDS011;65660;53.288;14.666;2024-03-08T05:41:28;27.33;;;16.77;;
76733;SDS011;65660;53.288;14.666;2024-03-08T05:46:28;33.17;;;18.77;;
76733;SDS011;65660;53.288;14.666;2024-03-08T05:51:29;33.00;;;17.13;;
76733;SDS011;65660;53.288;14.666;2024-03-08T05:56:30;33.73;;;17.37;;
76733;SDS011;65660;53.288;14.666;2024-03-08T06:01:30;33.13;;;17.60;;
76733;SDS011;65660;53.288;14.666;2024-03-08T06:06:31;32.23;;;18.60;;
76733;SDS011;65660;53.288;14.666;2024-03-08T06:11:32;31.47;;;17.93;;
76733;SDS011;65660;53.288;14.666;2024-03-08T06:16:32;32.73;;;18.20;;
76733;SDS011;65660;53.288;14.666;2024-03-08T06:21:33;35.40;;;20.57;;
76733;SDS011;65660;53.288;14.666;2024-03-08T06:26:34;30.67;;;17.33;;
76733;SDS011;65660;53.288;14.666;2024-03-08T06:31:34;31.20;;;17.33;;
76733;SDS011;65660;53.288;14.666;2024-03-08T06:36:35;36.77;;;17.97;;
76733;SDS011;65660;53.288;14.666;2024-03-08T06:41:36;30.47;;;17.20;;
76733;SDS011;65660;53.288;14.666;2024-03-08T06:46:36;30.50;;;17.23;;
76733;SDS011;65660;53.288;14.666;2024-03-08T06:51:37;33.80;;;18.63;;
76733;SDS011;65660;53.288;14.666;2024-03-08T06:56:38;34.93;;;18.27;;
76733;SDS011;65660;53.288;14.666;2024-03-08T07:01:38;37.10;;;19.73;;
76733;SDS011;65660;53.288;14.666;2024-03-08T07:06:39;35.57;;;17.93;;
76733;SDS011;65660;53.288;14.666;2024-03-08T07:11:40;34.57;;;17.70;;
76733;SDS011;65660;53.288;14.666;2024-03-08T07:16:40;32.77;;;18.50;;
76733;SDS011;65660;53.288;14.666;2024-03-08T07:21:41;31.70;;;17.43;;
76733;SDS011;65660;53.288;14.666;2024-03-08T07:26:42;33.73;;;18.37;;
76733;SDS011;65660;53.288;14.666;2024-03-08T07:31:42;34.53;;;18.30;;
76733;SDS011;65660;53.288;14.666;2024-03-08T07:36:43;32.73;;;19.27;;
76733;SDS011;65660;53.288;14.666;2024-03-08T07:41:44;34.67;;;18.30;;
76733;SDS011;65660;53.288;14.666;2024-03-08T07:46:44;34.97;;;19.27;;
76733;SDS011;65660;53.288;14.666;2024-03-08T07:51:45;33.67;;;18.23;;
76733;SDS011;65660;53.288;14.666;2024-03-08T07:56:45;34.60;;;18.93;;
76733;SDS011;65660;53.288;14.666;2024-03-08T08:01:46;33.30;;;19.40;;
76733;SDS011;65660;53.288;14.666;2024-03-08T08:06:47;31.03;;;18.53;;
76733;SDS011;65660;53.288;14.666;2024-03-08T08:11:48;32.43;;;18.33;;
76733;SDS011;65660;53.288;14.666;2024-03-08T08:16:48;32.63;;;17.93;;
76733;SDS011;65660;53.288;14.666;2024-03-08T08:21:49;31.07;;;19.00;;
76733;SDS011;65660;53.288;14.666;2024-03-08T08:26:49;33.63;;;20.17;;
76733;SDS011;65660;53.288;14.666;2024-03-08T08:31:51;31.90;;;18.20;;
76733;SDS011;65660;53.288;14.666;2024-03-08T08:36:52;29.17;;;18.93;;
76733;SDS011;65660;53.288;14.666;2024-03-08T08:41:53;27.20;;;16.93;;
76733;SDS011;65660;53.288;14.666;2024-03-08T08:46:54;30.20;;;17.43;;
76733;SDS011;65660;53.288;14.666;2024-03-08T08:51:54;27.87;;;16.93;;
76733;SDS011;65660;53.288;14.666;2024-03-08T08:56:56;30.70;;;17.83;;
76733;SDS011;65660;53.288;14.666;2024-03-08T09:01:57;30.77;;;17.57;;
76733;SDS011;65660;53.288;14.666;2024-03-08T09:06:57;29.80;;;17.83;;
76733;SDS011;65660;53.288;14.666;2024-03-08T09:11:58;26.03;;;16.83;;
76733;SDS011;65660;53.288;14.666;2024-03-08T09:16:58;30.10;;;17.33;;
76733;SDS011;65660;53.288;14.666;2024-03-08T09:21:59;25.83;;;15.73;;
76733;SDS011;65660;53.288;14.666;2024-03-08T09:26:59;28.73;;;18.40;;
76733;SDS011;65660;53.288;14.666;2024-03-08T09:32:00;28.90;;;16.80;;
76733;SDS011;65660;53.288;14.666;2024-03-08T09:37:00;30.20;;;17.63;;
76733;SDS011;65660;53.288;14.666;2024-03-08T09:42:01;27.67;;;16.03;;
76733;SDS011;65660;53.288;14.666;2024-03-08T09:47:02;25.50;;;16.30;;
76733;SDS011;65660;53.288;14.666;2024-03-08T09:52:03;22.07;;;14.70;;
76733;SDS011;65660;53.288;14.666;2024-03-08T09:57:04;24.93;;;15.43;;
76733;SDS011;65660;53.288;14.666;2024-03-08T10:02:04;26.93;;;16.13;;
76733;SDS011;65660;53.288;14.666;2024-03-08T10:07:05;26.53;;;16.97;;
76733;SDS011;65660;53.288;14.666;2024-03-08T10:12:06;26.70;;;16.00;;
76733;SDS011;65660;53.288;14.666;2024-03-08T10:17:07;26.40;;;15.90;;
76733;SDS011;65660;53.288;14.666;2024-03-08T10:22:10;25.23;;;16.23;;
76733;SDS011;65660;53.288;14.666;2024-03-08T10:27:18;24.73;;;17.57;;
76733;SDS011;65660;53.288;14.666;2024-03-08T10:32:19;25.10;;;16.30;;
76733;SDS011;65660;53.288;14.666;2024-03-08T10:37:21;27.43;;;16.23;;
76733;SDS011;65660;53.288;14.666;2024-03-08T10:42:22;27.77;;;17.40;;
76733;SDS011;65660;53.288;14.666;2024-03-08T10:47:27;25.33;;;16.50;;
76733;SDS011;65660;53.288;14.666;2024-03-08T10:52:29;28.07;;;16.63;;
76733;SDS011;65660;53.288;14.666;2024-03-08T10:57:30;23.77;;;16.30;;
76733;SDS011;65660;53.288;14.666;2024-03-08T11:02:30;24.67;;;17.00;;
76733;SDS011;65660;53.288;14.666;2024-03-08T11:07:34;25.37;;;16.00;;
76733;SDS011;65660;53.288;14.666;2024-03-08T11:12:38;22.57;;;15.67;;
76733;SDS011;65660;53.288;14.666;2024-03-08T11:22:39;25.90;;;19.50;;
76733;SDS011;65660;53.288;14.666;2024-03-08T11:27:39;24.23;;;16.37;;
76733;SDS011;65660;53.288;14.666;2024-03-08T11:32:53;23.07;;;16.23;;
76733;SDS011;65660;53.288;14.666;2024-03-08T11:37:53;25.57;;;16.87;;
76733;SDS011;65660;53.288;14.666;2024-03-08T11:42:54;25.47;;;16.90;;
76733;SDS011;65660;53.288;14.666;2024-03-08T11:47:54;26.77;;;16.47;;
76733;SDS011;65660;53.288;14.666;2024-03-08T11:53:03;24.07;;;16.23;;
76733;SDS011;65660;53.288;14.666;2024-03-08T11:58:05;23.87;;;16.03;;
76733;SDS011;65660;53.288;14.666;2024-03-08T12:03:07;25.73;;;18.00;;
76733;SDS011;65660;53.288;14.666;2024-03-08T12:08:08;25.97;;;17.03;;
76733;SDS011;65660;53.288;14.666;2024-03-08T12:13:08;24.60;;;16.00;;
76733;SDS011;65660;53.288;14.666;2024-03-08T12:18:09;21.80;;;14.40;;
76733;SDS011;65660;53.288;14.666;2024-03-08T12:23:13;23.00;;;15.00;;
76733;SDS011;65660;53.288;14.666;2024-03-08T12:28:15;23.50;;;14.73;;
76733;SDS011;65660;53.288;14.666;2024-03-08T12:33:16;21.87;;;14.47;;
76733;SDS011;65660;53.288;14.666;2024-03-08T12:38:17;22.80;;;14.80;;
76733;SDS011;65660;53.288;14.666;2024-03-08T12:43:17;25.30;;;15.60;;
76733;SDS011;65660;53.288;14.666;2024-03-08T12:48:18;20.97;;;14.40;;
76733;SDS011;65660;53.288;14.666;2024-03-08T12:53:18;21.00;;;14.37;;
76733;SDS011;65660;53.288;14.666;2024-03-08T12:58:19;20.53;;;14.93;;
76733;SDS011;65660;53.288;14.666;2024-03-08T13:03:21;22.20;;;14.23;;
76733;SDS011;65660;53.288;14.666;2024-03-08T13:08:21;24.37;;;15.67;;
76733;SDS011;65660;53.288;14.666;2024-03-08T13:13:22;26.37;;;17.20;;
76733;SDS011;65660;53.288;14.666;2024-03-08T13:18:23;24.37;;;17.57;;
76733;SDS011;65660;53.288;14.666;2024-03-08T13:23:24;23.90;;;15.40;;
76733;SDS011;65660;53.288;14.666;2024-03-08T13:28:24;22.60;;;14.90;;
76733;SDS011;65660;53.288;14.666;2024-03-08T13:33:25;19.47;;;14.07;;
76733;SDS011;65660;53.288;14.666;2024-03-08T13:38:25;19.37;;;14.53;;
76733;SDS011;65660;53.288;14.666;2024-03-08T13:43:26;23.13;;;15.33;;
76733;SDS011;65660;53.288;14.666;2024-03-08T13:48:27;26.83;;;18.27;;
76733;SDS011;65660;53.288;14.666;2024-03-08T13:53:27;31.97;;;23.10;;
76733;SDS011;65660;53.288;14.666;2024-03-08T13:58:28;20.63;;;18.20;;
76733;SDS011;65660;53.288;14.666;2024-03-08T14:03:28;18.73;;;14.50;;
76733;SDS011;65660;53.288;14.666;2024-03-08T14:08:29;21.83;;;15.63;;
76733;SDS011;65660;53.288;14.666;2024-03-08T14:13:30;23.13;;;16.00;;
76733;SDS011;65660;53.288;14.666;2024-03-08T14:18:31;21.17;;;15.57;;
76733;SDS011;65660;53.288;14.666;2024-03-08T14:23:31;17.83;;;15.00;;
76733;SDS011;65660;53.288;14.666;2024-03-08T14:28:32;27.93;;;19.43;;
76733;SDS011;65660;53.288;14.666;2024-03-08T14:33:32;19.30;;;17.07;;
76733;SDS011;65660;53.288;14.666;2024-03-08T14:38:33;28.00;;;18.53;;
76733;SDS011;65660;53.288;14.666;2024-03-08T14:43:34;18.80;;;15.17;;
76733;SDS011;65660;53.288;14.666;2024-03-08T14:48:34;23.33;;;16.50;;
76733;SDS011;65660;53.288;14.666;2024-03-08T14:53:35;23.03;;;16.67;;
76733;SDS011;65660;53.288;14.666;2024-03-08T14:58:36;34.70;;;22.80;;
76733;SDS011;65660;53.288;14.666;2024-03-08T15:03:36;22.60;;;16.00;;
76733;SDS011;65660;53.288;14.666;2024-03-08T15:08:37;21.77;;;15.07;;
76733;SDS011;65660;53.288;14.666;2024-03-08T15:13:38;21.57;;;14.87;;
76733;SDS011;65660;53.288;14.666;2024-03-08T15:18:39;19.37;;;15.63;;
76733;SDS011;65660;53.288;14.666;2024-03-08T15:23:39;18.33;;;14.63;;
76733;SDS011;65660;53.288;14.666;2024-03-08T15:28:40;16.93;;;14.30;;
76733;SDS011;65660;53.288;14.666;2024-03-08T15:33:41;19.93;;;14.93;;
76733;SDS011;65660;53.288;14.666;2024-03-08T15:38:42;18.10;;;14.43;;
76733;SDS011;65660;53.288;14.666;2024-03-08T15:43:42;20.27;;;15.77;;
76733;SDS011;65660;53.288;14.666;2024-03-08T15:48:43;19.90;;;15.23;;
76733;SDS011;65660;53.288;14.666;2024-03-08T15:53:43;19.53;;;16.57;;
76733;SDS011;65660;53.288;14.666;2024-03-08T15:58:44;20.37;;;15.43;;
76733;SDS011;65660;53.288;14.666;2024-03-08T16:03:44;17.83;;;14.70;;
76733;SDS011;65660;53.288;14.666;2024-03-08T16:08:45;20.80;;;14.37;;
76733;SDS011;65660;53.288;14.666;2024-03-08T16:13:46;18.50;;;14.57;;
76733;SDS011;65660;53.288;14.666;2024-03-08T16:18:47;19.73;;;14.13;;
76733;SDS011;65660;53.288;14.666;2024-03-08T16:23:48;19.73;;;13.50;;
76733;SDS011;65660;53.288;14.666;2024-03-08T16:28:48;19.63;;;14.07;;
76733;SDS011;65660;53.288;14.666;2024-03-08T16:33:49;19.40;;;14.47;;
76733;SDS011;65660;53.288;14.666;2024-03-08T16:38:50;21.60;;;15.43;;
76733;SDS011;65660;53.288;14.666;2024-03-08T16:43:50;20.67;;;15.73;;
76733;SDS011;65660;53.288;14.666;2024-03-08T16:48:51;17.63;;;14.83;;
76733;SDS011;65660;53.288;14.666;2024-03-08T16:53:51;22.03;;;15.33;;
76733;SDS011;65660;53.288;14.666;2024-03-08T16:58:52;18.77;;;15.23;;
76733;SDS011;65660;53.288;14.666;2024-03-08T17:03:52;22.20;;;16.83;;
76733;SDS011;65660;53.288;14.666;2024-03-08T17:08:53;23.00;;;17.87;;
76733;SDS011;65660;53.288;14.666;2024-03-08T17:13:54;23.70;;;16.83;;
76733;SDS011;65660;53.288;14.666;2024-03-08T17:18:54;27.13;;;18.20;;
76733;SDS011;65660;53.288;14.666;2024-03-08T17:23:55;26.43;;;17.67;;
76733;SDS011;65660;53.288;14.666;2024-03-08T17:28:56;27.73;;;18.57;;
76733;SDS011;65660;53.288;14.666;2024-03-08T17:33:57;28.20;;;17.83;;
76733;SDS011;65660;53.288;14.666;2024-03-08T17:38:57;27.60;;;18.63;;
76733;SDS011;65660;53.288;14.666;2024-03-08T17:43:58;29.83;;;19.17;;
76733;SDS011;65660;53.288;14.666;2024-03-08T17:48:58;28.57;;;18.83;;
76733;SDS011;65660;53.288;14.666;2024-03-08T17:54:00;31.70;;;18.73;;
76733;SDS011;65660;53.288;14.666;2024-03-08T17:59:00;30.97;;;19.27;;
76733;SDS011;65660;53.288;14.666;2024-03-08T18:04:02;27.53;;;18.30;;
76733;SDS011;65660;53.288;14.666;2024-03-08T18:09:06;28.80;;;18.87;;
76733;SDS011;65660;53.288;14.666;2024-03-08T18:14:07;25.80;;;17.47;;
76733;SDS011;65660;53.288;14.666;2024-03-08T18:19:09;27.13;;;17.87;;
76733;SDS011;65660;53.288;14.666;2024-03-08T18:24:11;26.37;;;18.27;;
76733;SDS011;65660;53.288;14.666;2024-03-08T18:29:12;26.27;;;17.17;;
76733;SDS011;65660;53.288;14.666;2024-03-08T18:34:13;25.57;;;17.10;;
76733;SDS011;65660;53.288;14.666;2024-03-08T18:39:14;25.70;;;17.00;;
76733;SDS011;65660;53.288;14.666;2024-03-08T18:44:15;26.43;;;16.63;;
76733;SDS011;65660;53.288;14.666;2024-03-08T18:49:16;26.40;;;17.67;;
76733;SDS011;65660;53.288;14.666;2024-03-08T18:54:18;27.43;;;17.07;;
76733;SDS011;65660;53.288;14.666;2024-03-08T18:59:19;27.23;;;17.63;;
76733;SDS011;65660;53.288;14.666;2024-03-08T19:04:20;27.93;;;19.03;;
76733;SDS011;65660;53.288;14.666;2024-03-08T19:09:23;29.47;;;21.33;;
76733;SDS011;65660;53.288;14.666;2024-03-08T19:14:24;33.37;;;20.07;;
76733;SDS011;65660;53.288;14.666;2024-03-08T19:19:26;34.23;;;19.73;;
76733;SDS011;65660;53.288;14.666;2024-03-08T19:24:32;35.07;;;22.13;;
76733;SDS011;65660;53.288;14.666;2024-03-08T19:29:34;32.57;;;19.10;;
76733;SDS011;65660;53.288;14.666;2024-03-08T19:34:36;32.50;;;20.60;;
76733;SDS011;65660;53.288;14.666;2024-03-08T19:39:40;33.33;;;19.60;;
76733;SDS011;65660;53.288;14.666;2024-03-08T19:44:40;34.13;;;21.47;;
76733;SDS011;65660;53.288;14.666;2024-03-08T19:49:43;32.30;;;20.63;;
76733;SDS011;65660;53.288;14.666;2024-03-08T19:54:44;34.43;;;20.50;;
76733;SDS011;65660;53.288;14.666;2024-03-08T19:59:45;34.30;;;21.03;;
76733;SDS011;65660;53.288;14.666;2024-03-08T20:04:45;35.00;;;20.80;;
76733;SDS011;65660;53.288;14.666;2024-03-08T20:09:47;38.37;;;21.47;;
76733;SDS011;65660;53.288;14.666;2024-03-08T20:14:47;36.13;;;21.53;;
76733;SDS011;65660;53.288;14.666;2024-03-08T20:19:49;33.73;;;21.40;;
76733;SDS011;65660;53.288;14.666;2024-03-08T20:24:49;35.83;;;21.57;;
76733;SDS011;65660;53.288;14.666;2024-03-08T20:29:50;35.57;;;21.00;;
76733;SDS011;65660;53.288;14.666;2024-03-08T20:34:51;33.73;;;20.30;;
76733;SDS011;65660;53.288;14.666;2024-03-08T20:39:51;37.70;;;20.77;;
76733;SDS011;65660;53.288;14.666;2024-03-08T20:44:54;33.90;;;20.10;;
76733;SDS011;65660;53.288;14.666;2024-03-08T20:49:54;38.87;;;21.43;;
76733;SDS011;65660;53.288;14.666;2024-03-08T20:54:55;37.97;;;21.20;;
76733;SDS011;65660;53.288;14.666;2024-03-08T20:59:56;36.40;;;21.67;;
76733;SDS011;65660;53.288;14.666;2024-03-08T21:04:56;37.60;;;22.17;;
76733;SDS011;65660;53.288;14.666;2024-03-08T21:09:57;35.37;;;21.17;;
76733;SDS011;65660;53.288;14.666;2024-03-08T21:14:58;32.27;;;20.27;;
76733;SDS011;65660;53.288;14.666;2024-03-08T21:19:58;35.27;;;20.03;;
76733;SDS011;65660;53.288;14.666;2024-03-08T21:24:59;36.67;;;20.33;;
76733;SDS011;65660;53.288;14.666;2024-03-08T21:29:59;35.87;;;20.47;;
76733;SDS011;65660;53.288;14.666;2024-03-08T21:35:00;34.97;;;20.77;;
76733;SDS011;65660;53.288;14.666;2024-03-08T21:40:05;35.87;;;20.50;;
76733;SDS011;65660;53.288;14.666;2024-03-08T21:45:06;38.17;;;21.80;;
76733;SDS011;65660;53.288;14.666;2024-03-08T21:50:07;34.90;;;21.23;;
76733;SDS011;65660;53.288;14.666;2024-03-08T21:55:08;35.10;;;21.37;;
76733;SDS011;65660;53.288;14.666;2024-03-08T22:00:10;37.07;;;22.37;;
76733;SDS011;65660;53.288;14.666;2024-03-08T22:05:11;35.57;;;21.67;;
76733;SDS011;65660;53.288;14.666;2024-03-08T22:10:13;38.10;;;22.03;;
76733;SDS011;65660;53.288;14.666;2024-03-08T22:15:13;38.97;;;22.53;;
76733;SDS011;65660;53.288;14.666;2024-03-08T22:20:14;40.37;;;22.37;;
76733;SDS011;65660;53.288;14.666;2024-03-08T22:25:16;38.70;;;21.33;;
76733;SDS011;65660;53.288;14.666;2024-03-08T22:30:18;39.80;;;22.67;;
76733;SDS011;65660;53.288;14.666;2024-03-08T22:35:19;38.07;;;22.53;;
76733;SDS011;65660;53.288;14.666;2024-03-08T22:40:20;38.40;;;21.57;;
76733;SDS011;65660;53.288;14.666;2024-03-08T22:45:21;38.63;;;22.07;;
76733;SDS011;65660;53.288;14.666;2024-03-08T22:50:22;36.53;;;21.83;;
76733;SDS011;65660;53.288;14.666;2024-03-08T22:55:22;40.93;;;21.27;;
76733;SDS011;65660;53.288;14.666;2024-03-08T23:00:23;37.60;;;22.13;;
76733;SDS011;65660;53.288;14.666;2024-03-08T23:05:24;41.43;;;21.83;;
76733;SDS011;65660;53.288;14.666;2024-03-08T23:10:25;41.57;;;26.27;;
76733;SDS011;65660;53.288;14.666;2024-03-08T23:15:26;41.80;;;21.63;;
76733;SDS011;65660;53.288;14.666;2024-03-08T23:20:27;37.63;;;21.23;;
76733;SDS011;65660;53.288;14.666;2024-03-08T23:25:27;40.87;;;22.00;;
76733;SDS011;65660;53.288;14.666;2024-03-08T23:30:28;40.27;;;21.23;;
76733;SDS011;65660;53.288;14.666;2024-03-08T23:35:29;38.53;;;21.93;;
76733;SDS011;65660;53.288;14.666;2024-03-08T23:40:30;38.43;;;21.40;;
76733;SDS011;65660;53.288;14.666;2024-03-08T23:45:31;34.27;;;21.87;;
76733;SDS011;65660;53.288;14.666;2024-03-08T23:50:33;37.47;;;20.93;;
76733;SDS011;65660;53.288;14.666;2024-03-08T23:55:36;35.67;;;21.67;;
